createdAt,value
2018-03-03T00:02:00.278Z,-1.50
2018-03-03T00:04:28.550Z,-1.50
2018-03-03T00:06:56.265Z,-1.50
2018-03-03T00:09:23.778Z,-1.40
2018-03-03T00:11:52.126Z,-1.50
2018-03-03T00:14:19.642Z,-1.50
2018-03-03T00:16:47.203Z,-1.50
2018-03-03T00:19:14.782Z,-1.60
2018-03-03T00:21:42.491Z,-1.50
2018-03-03T00:24:10.836Z,-1.50
2018-03-03T00:26:39.295Z,-1.50
2018-03-03T00:29:06.790Z,-1.50
2018-03-03T00:31:35.168Z,-1.70
2018-03-03T00:34:02.858Z,-1.70
2018-03-03T00:36:30.413Z,-1.70
2018-03-03T00:38:58.164Z,-1.70
2018-03-03T00:41:26.453Z,-1.70
2018-03-03T00:43:54.220Z,-1.70
2018-03-03T00:46:22.467Z,-1.70
2018-03-03T00:48:50.064Z,-1.80
2018-03-03T00:51:17.587Z,-1.80
2018-03-03T00:53:45.304Z,-1.70
2018-03-03T00:56:12.814Z,-1.70
2018-03-03T00:58:40.691Z,-1.70
2018-03-03T01:01:08.975Z,-1.60
2018-03-03T01:03:37.300Z,-1.60
2018-03-03T01:06:04.785Z,-1.60
2018-03-03T01:08:32.309Z,-1.60
2018-03-03T01:10:59.804Z,-1.60
2018-03-03T01:13:27.423Z,-1.70
2018-03-03T01:15:55.188Z,-1.70
2018-03-03T01:18:22.802Z,-1.60
2018-03-03T01:20:51.124Z,-1.60
2018-03-03T01:23:18.637Z,-1.60
2018-03-03T01:25:46.150Z,-1.60
2018-03-03T01:28:14.873Z,-1.70
2018-03-03T01:30:42.393Z,-1.60
2018-03-03T01:33:09.907Z,-1.70
2018-03-03T01:35:37.402Z,-1.80
2018-03-03T01:38:05.613Z,-1.90
2018-03-03T01:40:33.151Z,-1.90
2018-03-03T01:43:00.864Z,-1.90
2018-03-03T01:45:29.179Z,-2.00
2018-03-03T01:47:56.703Z,-2.10
2018-03-03T01:50:24.204Z,-2.20
2018-03-03T01:52:51.764Z,-2.30
2018-03-03T01:55:19.230Z,-2.40
2018-03-03T01:57:46.714Z,-2.40
2018-03-03T02:00:14.333Z,-2.30
2018-03-03T02:02:41.832Z,-2.30
2018-03-03T02:05:09.330Z,-2.40
2018-03-03T02:07:36.816Z,-2.30
2018-03-03T02:10:04.441Z,-2.40
2018-03-03T02:12:32.820Z,-2.50
2018-03-03T02:15:01.158Z,-2.40
2018-03-03T02:17:28.648Z,-2.50
2018-03-03T02:19:56.176Z,-2.50
2018-03-03T02:22:23.981Z,-2.40
2018-03-03T02:24:52.268Z,-2.40
2018-03-03T02:27:19.982Z,-2.50
2018-03-03T02:29:47.520Z,-2.40
2018-03-03T02:32:15.265Z,-2.40
2018-03-03T02:34:42.796Z,-2.50
2018-03-03T02:37:11.069Z,-2.40
2018-03-03T02:39:38.675Z,-2.50
2018-03-03T02:42:06.156Z,-2.40
2018-03-03T02:44:33.673Z,-2.40
2018-03-03T02:47:02.217Z,-2.30
2018-03-03T02:49:29.818Z,-2.30
2018-03-03T02:51:58.262Z,-2.20
2018-03-03T02:54:25.746Z,-2.20
2018-03-03T02:56:54.139Z,-2.20
2018-03-03T02:59:21.831Z,-2.20
2018-03-03T03:01:49.516Z,-2.20
2018-03-03T03:04:17.335Z,-2.20
2018-03-03T03:06:44.838Z,-2.40
2018-03-03T03:09:12.351Z,-2.40
2018-03-03T03:11:40.759Z,-2.40
2018-03-03T03:14:08.312Z,-2.50
2018-03-03T03:16:36.100Z,-2.50
2018-03-03T03:19:03.571Z,-2.50
2018-03-03T03:21:31.153Z,-2.60
2018-03-03T03:23:59.544Z,-2.80
2018-03-03T03:26:27.043Z,-2.80
2018-03-03T03:28:54.548Z,-2.80
2018-03-03T03:31:22.122Z,-2.80
2018-03-03T03:33:50.385Z,-3.00
2018-03-03T03:36:18.655Z,-3.00
2018-03-03T03:38:46.127Z,-3.00
2018-03-03T03:41:14.413Z,-3.00
2018-03-03T03:43:42.632Z,-3.00
2018-03-03T03:46:10.240Z,-3.00
2018-03-03T03:48:37.910Z,-3.10
2018-03-03T03:51:06.163Z,-3.10
2018-03-03T03:53:33.725Z,-3.10
2018-03-03T03:56:01.496Z,-3.10
2018-03-03T03:58:29.775Z,-3.10
2018-03-03T04:00:58.045Z,-3.10
2018-03-03T04:03:25.611Z,-3.10
2018-03-03T04:05:53.274Z,-3.10
2018-03-03T04:08:21.552Z,-3.10
2018-03-03T04:10:49.826Z,-3.10
2018-03-03T04:13:18.101Z,-3.10
2018-03-03T04:15:45.659Z,-3.10
2018-03-03T04:18:14.038Z,-3.10
2018-03-03T04:20:42.422Z,-3.10
2018-03-03T04:23:10.794Z,-3.20
2018-03-03T04:25:38.252Z,-3.30
2018-03-03T04:28:06.576Z,-3.20
2018-03-03T04:30:34.061Z,-3.20
2018-03-03T04:33:01.692Z,-3.20
2018-03-03T04:35:29.211Z,-3.20
2018-03-03T04:37:56.759Z,-3.20
2018-03-03T04:40:25.290Z,-3.30
2018-03-03T04:42:53.196Z,-3.30
2018-03-03T04:45:20.751Z,-3.40
2018-03-03T04:47:48.280Z,-3.30
2018-03-03T04:50:19.380Z,-3.30
2018-03-03T04:52:46.892Z,-3.30
2018-03-03T04:55:14.547Z,-3.30
2018-03-03T04:57:42.214Z,-3.30
2018-03-03T05:00:15.565Z,-3.40
2018-03-03T05:02:48.707Z,-3.30
2018-03-03T05:08:26.935Z,-3.20
2018-03-03T05:11:04.532Z,-3.20
2018-03-03T05:13:36.073Z,-3.10
2018-03-03T05:16:09.136Z,-3.10
2018-03-03T05:18:57.202Z,-3.10
2018-03-03T05:21:31.361Z,-3.10
2018-03-03T05:27:04.924Z,-3.00
2018-03-03T05:29:36.960Z,-2.90
2018-03-03T05:35:13.331Z,-2.90
2018-03-03T05:37:56.051Z,-2.80
2018-03-03T05:40:29.491Z,-2.90
2018-03-03T05:43:02.743Z,-2.80
2018-03-03T05:45:30.727Z,-2.80
2018-03-03T05:48:13.526Z,-2.80
2018-03-03T05:50:46.699Z,-2.80
2018-03-03T05:56:34.269Z,-2.80
2018-03-03T06:05:18.239Z,-2.60
2018-03-03T06:08:01.831Z,-2.60
2018-03-03T06:10:31.772Z,-2.70
2018-03-03T06:12:59.545Z,-2.70
2018-03-03T06:15:27.226Z,-2.60
2018-03-03T06:17:54.748Z,-2.60
2018-03-03T06:20:22.251Z,-2.60
2018-03-03T06:22:49.766Z,-2.60
2018-03-03T06:25:18.460Z,-2.60
2018-03-03T06:27:45.984Z,-2.50
2018-03-03T06:30:14.341Z,-2.50
2018-03-03T06:32:42.026Z,-2.50
2018-03-03T06:35:10.402Z,-2.30
2018-03-03T06:37:38.654Z,-2.30
2018-03-03T06:40:06.188Z,-2.30
2018-03-03T06:42:33.837Z,-2.30
2018-03-03T06:45:01.360Z,-2.30
2018-03-03T06:47:29.652Z,-2.20
2018-03-03T06:49:57.900Z,-2.20
2018-03-03T06:52:25.384Z,-2.20
2018-03-03T06:54:52.896Z,-2.10
2018-03-03T06:57:20.462Z,-2.10
2018-03-03T06:59:48.046Z,-2.00
2018-03-03T07:02:16.326Z,-2.00
2018-03-03T07:04:44.607Z,-1.90
2018-03-03T07:07:12.922Z,-1.90
2018-03-03T07:09:40.399Z,-1.90
2018-03-03T07:12:07.932Z,-1.80
2018-03-03T07:14:35.909Z,-1.80
2018-03-03T07:17:03.689Z,-1.80
2018-03-03T07:19:31.292Z,-1.80
2018-03-03T07:21:58.811Z,-1.80
2018-03-03T07:24:26.324Z,-1.90
2018-03-03T07:26:54.053Z,-1.90
2018-03-03T07:29:21.574Z,-1.90
2018-03-03T07:31:50.002Z,-1.90
2018-03-03T07:34:17.506Z,-1.90
2018-03-03T07:36:45.034Z,-1.80
2018-03-03T07:39:13.345Z,-1.70
2018-03-03T07:41:40.868Z,-1.70
2018-03-03T07:44:09.111Z,-1.50
2018-03-03T07:46:36.776Z,-1.60
2018-03-03T07:49:04.269Z,-1.50
2018-03-03T07:51:32.643Z,-1.40
2018-03-03T07:54:00.153Z,-1.40
2018-03-03T07:56:48.324Z,-1.50
2018-03-03T07:59:15.905Z,-1.40
2018-03-03T08:01:44.262Z,-1.30
2018-03-03T08:04:11.785Z,-1.30
2018-03-03T08:06:39.524Z,-1.30
2018-03-03T08:09:07.792Z,-1.30
2018-03-03T08:11:35.577Z,-1.30
2018-03-03T08:14:03.204Z,-1.20
2018-03-03T08:16:30.683Z,-1.20
2018-03-03T08:18:59.073Z,-0.90
2018-03-03T08:21:27.536Z,-0.80
2018-03-03T08:23:55.831Z,-0.70
2018-03-03T08:26:24.195Z,-0.70
2018-03-03T08:28:52.686Z,-0.60
2018-03-03T08:31:21.011Z,-0.60
2018-03-03T08:33:48.490Z,-0.60
2018-03-03T08:36:15.988Z,-0.50
2018-03-03T08:38:43.475Z,-0.40
2018-03-03T08:41:11.902Z,-0.30
2018-03-03T08:43:41.118Z,-0.20
2018-03-03T08:46:09.486Z,-0.30
2018-03-03T08:48:37.901Z,-0.40
2018-03-03T08:51:05.419Z,-0.40
2018-03-03T08:53:32.983Z,-0.40
2018-03-03T08:56:01.461Z,-0.50
2018-03-03T08:58:29.508Z,-0.50
2018-03-03T09:00:56.992Z,-0.50
2018-03-03T09:03:24.663Z,-0.40
2018-03-03T09:05:52.948Z,-0.40
2018-03-03T09:08:20.438Z,-0.40
2018-03-03T09:10:48.730Z,-0.30
2018-03-03T09:13:16.235Z,-0.20
2018-03-03T09:15:43.818Z,-0.30
2018-03-03T09:18:11.356Z,-0.30
2018-03-03T09:20:39.615Z,-0.30
2018-03-03T09:23:07.357Z,-0.30
2018-03-03T09:25:34.847Z,-0.30
2018-03-03T09:28:02.463Z,-0.30
2018-03-03T09:30:30.676Z,-0.20
2018-03-03T09:32:58.962Z,-0.30
2018-03-03T09:35:27.412Z,-0.30
2018-03-03T09:37:55.826Z,-0.10
2018-03-03T09:40:24.133Z,-0.10
2018-03-03T09:42:51.750Z,-0.10
2018-03-03T09:45:19.223Z,-0.10
2018-03-03T09:47:46.724Z,-0.10
2018-03-03T09:50:14.220Z,0.00
2018-03-03T09:52:41.703Z,-0.10
2018-03-03T09:55:10.023Z,-0.10
2018-03-03T09:57:37.600Z,-0.10
2018-03-03T10:00:05.141Z,0.00
2018-03-03T10:02:32.640Z,0.00
2018-03-03T10:05:00.173Z,0.20
2018-03-03T10:07:27.802Z,0.20
2018-03-03T10:09:55.584Z,0.30
2018-03-03T10:12:23.083Z,0.40
2018-03-03T10:14:50.635Z,0.40
2018-03-03T10:17:18.175Z,0.30
2018-03-03T10:19:45.707Z,0.10
2018-03-03T10:22:13.307Z,0.10
2018-03-03T10:24:40.888Z,0.10
2018-03-03T10:27:09.166Z,-0.10
2018-03-03T10:29:37.444Z,-0.10
2018-03-03T10:32:04.917Z,-0.10
2018-03-03T10:34:33.179Z,-0.10
2018-03-03T10:37:00.875Z,-0.10
2018-03-03T10:39:28.484Z,-0.10
2018-03-03T10:41:56.329Z,-0.10
2018-03-03T10:44:23.848Z,-0.10
2018-03-03T10:46:52.401Z,-0.10
2018-03-03T10:49:19.905Z,-0.10
2018-03-03T10:51:47.429Z,0.00
2018-03-03T10:54:15.075Z,0.00
2018-03-03T10:56:42.589Z,0.10
2018-03-03T10:59:10.134Z,0.10
2018-03-03T11:01:37.652Z,0.20
2018-03-03T11:04:05.125Z,0.10
2018-03-03T11:06:33.406Z,0.20
2018-03-03T11:09:00.976Z,0.10
2018-03-03T11:11:29.213Z,0.40
2018-03-03T11:13:56.683Z,0.40
2018-03-03T11:16:24.165Z,0.50
2018-03-03T11:18:52.548Z,0.70
2018-03-03T11:21:20.820Z,0.60
2018-03-03T11:23:49.075Z,0.60
2018-03-03T11:26:16.546Z,0.60
2018-03-03T11:28:44.280Z,0.70
2018-03-03T11:31:11.822Z,0.60
2018-03-03T11:33:39.464Z,0.60
2018-03-03T11:36:07.168Z,0.50
2018-03-03T11:38:34.710Z,0.50
2018-03-03T11:41:02.223Z,0.60
2018-03-03T11:43:30.491Z,0.80
2018-03-03T11:45:58.807Z,0.90
2018-03-03T11:48:26.399Z,0.90
2018-03-03T11:50:53.925Z,0.80
2018-03-03T11:53:21.654Z,0.90
2018-03-03T11:55:49.175Z,0.80
2018-03-03T11:58:16.745Z,0.70
2018-03-03T12:00:44.223Z,0.60
2018-03-03T12:03:11.833Z,0.60
2018-03-03T12:05:39.478Z,0.80
2018-03-03T12:08:07.720Z,0.80
2018-03-03T12:10:36.014Z,0.80
2018-03-03T12:13:04.656Z,1.00
2018-03-03T12:15:32.160Z,1.00
2018-03-03T12:17:59.646Z,1.00
2018-03-03T12:20:27.166Z,0.90
2018-03-03T12:22:55.484Z,0.70
2018-03-03T12:25:24.076Z,0.70
2018-03-03T12:27:52.253Z,0.70
2018-03-03T12:30:19.737Z,0.80
2018-03-03T12:32:47.364Z,0.80
2018-03-03T12:35:14.945Z,0.80
2018-03-03T12:37:42.433Z,0.70
2018-03-03T12:40:09.919Z,0.80
2018-03-03T12:42:37.618Z,0.80
2018-03-03T12:45:05.098Z,1.00
2018-03-03T12:47:32.610Z,1.10
2018-03-03T12:50:00.136Z,1.20
2018-03-03T12:52:27.635Z,1.10
2018-03-03T12:54:55.118Z,1.00
2018-03-03T12:57:22.601Z,0.90
2018-03-03T12:59:50.948Z,0.80
2018-03-03T13:02:18.492Z,0.80
2018-03-03T14:08:46.180Z,0.60
2018-03-03T14:11:14.560Z,0.60
2018-03-03T14:13:42.143Z,0.60
2018-03-03T14:16:09.659Z,0.70
2018-03-03T14:18:37.955Z,0.80
2018-03-03T14:21:05.469Z,0.70
2018-03-03T14:23:32.963Z,0.70
2018-03-03T14:26:01.206Z,0.50
2018-03-03T14:28:29.159Z,0.50
2018-03-03T14:30:56.675Z,0.40
2018-03-03T14:33:24.933Z,0.20
2018-03-03T14:35:52.451Z,0.10
2018-03-03T14:38:19.964Z,0.20
2018-03-03T14:40:47.523Z,0.10
2018-03-03T14:43:15.870Z,0.10
2018-03-03T14:45:43.367Z,0.10
2018-03-03T14:48:11.592Z,0.30
2018-03-03T14:50:39.092Z,0.30
2018-03-03T14:53:07.351Z,0.30
2018-03-03T14:55:34.860Z,0.30
2018-03-03T14:58:02.346Z,0.30
2018-03-03T15:00:30.140Z,0.10
2018-03-03T15:02:58.575Z,0.20
2018-03-03T15:05:27.181Z,0.20
2018-03-03T15:07:54.724Z,0.10
2018-03-03T15:10:22.335Z,0.20
2018-03-03T15:12:50.791Z,0.40
2018-03-03T15:15:18.415Z,0.30
2018-03-03T15:17:45.938Z,0.40
2018-03-03T15:20:14.365Z,0.40
2018-03-03T15:22:41.842Z,0.40
2018-03-03T15:25:09.409Z,0.40
2018-03-03T15:27:36.897Z,0.40
2018-03-03T15:30:05.369Z,0.50
2018-03-03T15:32:33.662Z,0.30
2018-03-03T15:35:01.215Z,0.30
2018-03-03T15:37:29.492Z,0.20
2018-03-03T15:39:57.774Z,0.20
2018-03-03T15:42:26.039Z,0.20
2018-03-03T15:44:53.670Z,0.20
2018-03-03T15:47:21.228Z,0.30
2018-03-03T15:49:48.787Z,0.30
2018-03-03T15:52:16.415Z,0.20
2018-03-03T15:54:44.241Z,0.30
2018-03-03T15:57:12.588Z,0.30
2018-03-03T15:59:40.080Z,0.30
2018-03-03T16:02:07.567Z,0.30
2018-03-03T16:04:36.240Z,0.20
2018-03-03T16:07:04.491Z,0.20
2018-03-03T16:09:31.996Z,0.20
2018-03-03T16:12:00.458Z,0.20
2018-03-03T16:14:28.799Z,0.10
2018-03-03T16:16:56.578Z,0.00
2018-03-03T16:19:24.140Z,0.00
2018-03-03T16:21:52.550Z,0.00
2018-03-03T16:24:20.932Z,-0.10
2018-03-03T16:26:48.451Z,-0.10
2018-03-03T16:29:16.156Z,-0.10
2018-03-03T16:31:43.851Z,0.00
2018-03-03T16:34:11.432Z,0.00
2018-03-03T16:36:38.981Z,0.00
2018-03-03T16:39:07.325Z,0.00
2018-03-03T16:41:34.816Z,0.00
2018-03-03T16:44:02.380Z,-0.10
2018-03-03T16:46:29.871Z,-0.10
2018-03-03T16:48:58.273Z,-0.10
2018-03-03T16:51:25.679Z,-0.10
2018-03-03T16:53:53.258Z,0.00
2018-03-03T16:56:20.898Z,-0.10
2018-03-03T16:58:48.483Z,-0.10
2018-03-03T17:01:16.157Z,0.00
2018-03-03T17:03:44.492Z,0.00
2018-03-03T17:06:12.052Z,0.00
2018-03-03T17:08:39.833Z,0.10
2018-03-03T17:11:07.458Z,0.10
2018-03-03T17:13:36.077Z,0.00
2018-03-03T17:16:04.088Z,0.00
2018-03-03T17:18:32.496Z,0.10
2018-03-03T17:21:00.788Z,0.00
2018-03-03T17:23:28.387Z,0.10
2018-03-03T17:25:56.678Z,0.00
2018-03-03T17:28:24.992Z,0.10
2018-03-03T17:30:52.576Z,0.10
2018-03-03T17:33:20.443Z,0.10
2018-03-03T17:35:48.930Z,0.10
2018-03-03T17:38:16.650Z,0.10
2018-03-03T17:40:44.224Z,0.10
2018-03-03T17:43:11.809Z,0.10
2018-03-03T17:45:40.367Z,0.00
2018-03-03T17:48:07.857Z,0.00
2018-03-03T17:50:35.401Z,0.10
2018-03-03T17:53:02.914Z,0.00
2018-03-03T17:55:31.173Z,0.10
2018-03-03T17:57:58.906Z,0.10
2018-03-03T18:00:26.430Z,0.10
2018-03-03T18:02:54.167Z,0.00
2018-03-03T18:05:22.506Z,0.00
2018-03-03T18:07:50.135Z,-0.10
2018-03-03T18:10:17.757Z,0.00
2018-03-03T18:12:45.335Z,0.00
2018-03-03T18:15:13.762Z,-0.10
2018-03-03T18:17:41.251Z,-0.10
2018-03-03T18:20:08.718Z,-0.10
2018-03-03T18:22:36.260Z,-0.10
2018-03-03T18:25:03.782Z,0.00
2018-03-03T18:27:32.074Z,0.00
2018-03-03T18:29:59.569Z,0.00
2018-03-03T18:32:28.037Z,-0.10
2018-03-03T18:34:55.627Z,-0.10
2018-03-03T18:37:23.208Z,0.00
2018-03-03T18:39:50.740Z,0.00
2018-03-03T18:42:18.411Z,0.00
2018-03-03T18:44:46.438Z,0.00
2018-03-03T18:47:14.068Z,0.00
2018-03-03T18:49:41.586Z,0.00
2018-03-03T18:52:09.919Z,-0.10
2018-03-03T18:54:37.577Z,-0.10
2018-03-03T18:57:06.170Z,0.00
2018-03-03T18:59:34.068Z,0.00
2018-03-03T19:02:01.655Z,0.00
2018-03-03T19:04:30.155Z,0.00
2018-03-03T19:06:57.660Z,0.00
2018-03-03T19:09:25.175Z,-0.10
2018-03-03T19:11:52.867Z,0.00
2018-03-03T19:14:20.484Z,0.00
2018-03-03T19:16:48.016Z,0.00
2018-03-03T19:19:15.623Z,0.00
2018-03-03T19:21:43.139Z,0.00
2018-03-03T19:24:10.723Z,0.10
2018-03-03T19:26:38.195Z,0.00
2018-03-03T19:29:05.792Z,0.00
2018-03-03T19:31:33.365Z,0.10
2018-03-03T19:34:01.013Z,0.10
2018-03-03T19:36:28.573Z,0.10
2018-03-03T19:38:56.157Z,0.10
2018-03-03T19:41:23.644Z,0.10
2018-03-03T19:43:51.195Z,0.10
2018-03-03T19:46:18.715Z,0.00
2018-03-03T19:48:46.283Z,0.10
2018-03-03T19:51:13.978Z,0.10
2018-03-03T19:53:41.973Z,0.20
2018-03-03T19:56:09.516Z,0.20
2018-03-03T19:58:37.070Z,0.10
2018-03-03T20:01:05.652Z,0.00
2018-03-03T20:03:33.192Z,0.00
2018-03-03T20:06:00.804Z,0.10
2018-03-03T20:08:28.321Z,0.00
2018-03-03T20:10:56.089Z,-0.10
2018-03-03T20:13:24.378Z,-0.20
2018-03-03T20:15:52.768Z,-0.20
2018-03-03T20:18:20.252Z,-0.30
2018-03-03T20:20:47.761Z,-0.30
2018-03-03T20:23:16.300Z,-0.30
2018-03-03T20:25:44.016Z,-0.30
2018-03-03T20:28:11.950Z,-0.40
2018-03-03T20:30:39.530Z,-0.40
2018-03-03T20:33:07.102Z,-0.40
2018-03-03T20:35:36.045Z,-0.30
2018-03-03T20:38:03.599Z,-0.40
2018-03-03T20:40:31.092Z,-0.40
2018-03-03T20:42:58.663Z,-0.40
2018-03-03T20:45:27.052Z,-0.40
2018-03-03T20:47:54.830Z,-0.40
2018-03-03T20:50:22.492Z,-0.40
2018-03-03T20:52:50.205Z,-0.40
2018-03-03T20:55:17.815Z,-0.30
2018-03-03T20:57:46.085Z,-0.30
2018-03-03T21:00:14.089Z,-0.30
2018-03-03T21:02:41.601Z,-0.20
2018-03-03T21:05:09.993Z,-0.20
2018-03-03T21:07:37.586Z,-0.20
2018-03-03T21:10:05.249Z,-0.20
2018-03-03T21:12:48.650Z,-0.20
2018-03-03T21:15:16.919Z,-0.30
2018-03-03T21:17:45.152Z,-0.20
2018-03-03T21:20:12.799Z,-0.30
2018-03-03T21:22:40.716Z,-0.30
2018-03-03T21:25:09.003Z,-0.30
2018-03-03T21:27:36.725Z,-0.30
2018-03-03T21:30:04.317Z,-0.30
2018-03-03T21:32:32.765Z,-0.30
2018-03-03T21:35:00.266Z,-0.40
2018-03-03T21:37:28.735Z,-0.40
2018-03-03T21:39:56.471Z,-0.40
2018-03-03T21:42:23.956Z,-0.40
2018-03-03T21:44:52.307Z,-0.50
2018-03-03T21:47:19.835Z,-0.50
2018-03-03T21:49:47.355Z,-0.50
2018-03-03T21:52:14.985Z,-0.60
2018-03-03T21:54:42.744Z,-0.60
2018-03-03T21:57:10.241Z,-0.60
2018-03-03T21:59:38.517Z,-0.60
2018-03-03T22:02:06.756Z,-0.60
2018-03-03T22:04:35.355Z,-0.70
2018-03-03T22:07:03.785Z,-0.70
2018-03-03T22:09:31.472Z,-0.70
2018-03-03T22:11:58.993Z,-0.70
2018-03-03T22:14:26.548Z,-0.80
2018-03-03T22:16:54.821Z,-0.80
2018-03-03T22:19:23.053Z,-0.80
2018-03-03T22:21:50.576Z,-0.80
2018-03-03T22:24:18.894Z,-0.80
2018-03-03T22:26:46.421Z,-0.90
2018-03-03T22:29:14.660Z,-0.90
2018-03-03T22:31:42.153Z,-0.80
2018-03-03T22:34:09.639Z,-0.80
2018-03-03T22:36:37.196Z,-0.90
2018-03-03T22:39:05.437Z,-0.80
2018-03-03T22:41:33.059Z,-0.80
2018-03-03T22:44:01.431Z,-0.80
2018-03-03T22:46:28.912Z,-0.80
2018-03-03T22:48:56.801Z,-0.80
2018-03-03T22:51:24.316Z,-0.80
2018-03-03T22:53:51.803Z,-0.90
2018-03-03T22:56:20.130Z,-0.90
2018-03-03T22:58:48.079Z,-0.90
2018-03-03T23:01:15.574Z,-0.90
2018-03-03T23:03:43.065Z,-1.00
2018-03-03T23:06:11.548Z,-1.00
2018-03-03T23:08:39.788Z,-1.00
2018-03-03T23:11:07.369Z,-1.00
2018-03-03T23:13:35.289Z,-1.00
2018-03-03T23:16:02.783Z,-1.00
2018-03-03T23:18:31.281Z,-1.10
2018-03-03T23:20:59.651Z,-1.00
2018-03-03T23:23:27.181Z,-1.00
2018-03-03T23:25:54.991Z,-1.00
2018-03-03T23:28:23.251Z,-1.10
2018-03-03T23:30:50.830Z,-1.10
2018-03-03T23:33:18.476Z,-1.10
2018-03-03T23:35:45.996Z,-1.10
2018-03-03T23:38:13.632Z,-1.10
2018-03-03T23:40:41.099Z,-1.30
2018-03-03T23:43:08.682Z,-1.30
2018-03-03T23:45:36.182Z,-1.30
2018-03-03T23:48:03.765Z,-1.30
2018-03-03T23:50:31.217Z,-1.30
2018-03-03T23:52:59.806Z,-1.20
2018-03-03T23:55:28.043Z,-1.20
2018-03-03T23:57:55.967Z,-1.20
